sensor_id;sensor_type;location;lat;lon;timestamp;pressure;altitude;pressure_sealevel;temperature;humidity
76378;BME280;65200;49.500;8.654;2024-02-15T00:00:02;100909.50;;;18.29;61.57
76378;BME280;65200;49.500;8.654;2024-02-15T00:02:30;100906.28;;;17.77;62.77
76378;BME280;65200;49.500;8.654;2024-02-15T00:04:57;100904.75;;;18.60;60.41
76378;BME280;65200;49.500;8.654;2024-02-15T00:07:25;100905.25;;;18.39;60.88
76378;BME280;65200;49.500;8.654;2024-02-15T00:09:53;100900.91;;;18.14;61.38
76378;BME280;65200;49.500;8.654;2024-02-15T00:12:21;100905.09;;;17.73;61.86
76378;BME280;65200;49.500;8.654;2024-02-15T00:14:50;100901.75;;;18.14;61.64
76378;BME280;65200;49.500;8.654;2024-02-15T00:17:18;100904.59;;;18.37;61.37
76378;BME280;65200;49.500;8.654;2024-02-15T00:19:46;100894.47;;;17.72;62.17
76378;BME280;65200;49.500;8.654;2024-02-15T00:22:14;100893.25;;;17.68;62.59
76378;BME280;65200;49.500;8.654;2024-02-15T00:24:42;100894.94;;;18.05;62.32
76378;BME280;65200;49.500;8.654;2024-02-15T00:27:10;100888.91;;;17.67;62.34
76378;BME280;65200;49.500;8.654;2024-02-15T00:29:38;100892.09;;;17.82;62.76
76378;BME280;65200;49.500;8.654;2024-02-15T00:32:09;100889.09;;;18.26;61.23
76378;BME280;65200;49.500;8.654;2024-02-15T00:34:37;100885.44;;;17.78;61.76
76378;BME280;65200;49.500;8.654;2024-02-15T00:37:06;100885.00;;;18.17;60.80
76378;BME280;65200;49.500;8.654;2024-02-15T00:39:33;100880.88;;;18.15;60.53
76378;BME280;65200;49.500;8.654;2024-02-15T00:42:01;100885.19;;;17.61;61.85
76378;BME280;65200;49.500;8.654;2024-02-15T00:44:30;100877.53;;;17.76;61.59
76378;BME280;65200;49.500;8.654;2024-02-15T00:46:57;100886.94;;;17.56;62.41
76378;BME280;65200;49.500;8.654;2024-02-15T00:49:26;100887.41;;;17.89;62.65
76378;BME280;65200;49.500;8.654;2024-02-15T00:51:55;100882.78;;;17.71;61.94
76378;BME280;65200;49.500;8.654;2024-02-15T00:54:23;100880.56;;;17.13;63.66
76378;BME280;65200;49.500;8.654;2024-02-15T00:56:50;100876.47;;;17.59;61.74
76378;BME280;65200;49.500;8.654;2024-02-15T00:59:19;100879.56;;;17.81;62.02
76378;BME280;65200;49.500;8.654;2024-02-15T01:01:46;100871.34;;;17.69;60.93
76378;BME280;65200;49.500;8.654;2024-02-15T01:04:15;100866.38;;;17.66;61.91
76378;BME280;65200;49.500;8.654;2024-02-15T01:06:44;100865.44;;;17.79;60.98
76378;BME280;65200;49.500;8.654;2024-02-15T01:09:11;100860.44;;;17.76;60.82
76378;BME280;65200;49.500;8.654;2024-02-15T01:11:40;100858.47;;;17.65;62.24
76378;BME280;65200;49.500;8.654;2024-02-15T01:14:07;100864.72;;;17.41;61.83
76378;BME280;65200;49.500;8.654;2024-02-15T01:16:36;100865.56;;;17.66;61.16
76378;BME280;65200;49.500;8.654;2024-02-15T01:19:04;100867.50;;;17.59;61.13
76378;BME280;65200;49.500;8.654;2024-02-15T01:21:32;100875.25;;;17.55;61.94
76378;BME280;65200;49.500;8.654;2024-02-15T01:24:01;100875.75;;;17.89;61.15
76378;BME280;65200;49.500;8.654;2024-02-15T01:26:29;100877.56;;;17.52;61.77
76378;BME280;65200;49.500;8.654;2024-02-15T01:28:57;100876.06;;;17.07;63.73
76378;BME280;65200;49.500;8.654;2024-02-15T01:31:25;100872.56;;;17.24;63.56
76378;BME280;65200;49.500;8.654;2024-02-15T01:33:53;100867.94;;;17.31;63.24
76378;BME280;65200;49.500;8.654;2024-02-15T01:36:21;100872.78;;;17.72;61.09
76378;BME280;65200;49.500;8.654;2024-02-15T01:38:48;100868.13;;;17.79;61.83
76378;BME280;65200;49.500;8.654;2024-02-15T01:41:17;100874.66;;;17.71;61.38
76378;BME280;65200;49.500;8.654;2024-02-15T01:43:45;100869.31;;;17.40;62.14
76378;BME280;65200;49.500;8.654;2024-02-15T01:46:14;100871.25;;;17.33;62.36
76378;BME280;65200;49.500;8.654;2024-02-15T01:48:42;100871.59;;;18.40;59.24
76378;BME280;65200;49.500;8.654;2024-02-15T01:51:12;100869.03;;;18.27;59.63
76378;BME280;65200;49.500;8.654;2024-02-15T01:53:41;100869.75;;;17.62;61.51
76378;BME280;65200;49.500;8.654;2024-02-15T01:56:10;100867.25;;;18.03;60.78
76378;BME280;65200;49.500;8.654;2024-02-15T01:58:41;100877.78;;;18.11;59.68
76378;BME280;65200;49.500;8.654;2024-02-15T02:01:11;100871.81;;;17.85;59.92
76378;BME280;65200;49.500;8.654;2024-02-15T02:03:39;100869.94;;;17.85;60.63
76378;BME280;65200;49.500;8.654;2024-02-15T02:06:07;100868.88;;;17.86;59.83
76378;BME280;65200;49.500;8.654;2024-02-15T02:08:35;100865.56;;;18.02;60.49
76378;BME280;65200;49.500;8.654;2024-02-15T02:11:03;100863.69;;;17.85;59.15
76378;BME280;65200;49.500;8.654;2024-02-15T02:13:31;100853.94;;;17.59;61.89
76378;BME280;65200;49.500;8.654;2024-02-15T02:16:00;100855.47;;;17.73;59.87
76378;BME280;65200;49.500;8.654;2024-02-15T02:18:28;100851.41;;;17.82;60.82
76378;BME280;65200;49.500;8.654;2024-02-15T02:20:57;100857.66;;;17.15;61.45
76378;BME280;65200;49.500;8.654;2024-02-15T02:23:26;100847.22;;;17.37;61.17
76378;BME280;65200;49.500;8.654;2024-02-15T02:25:55;100846.50;;;17.54;60.62
76378;BME280;65200;49.500;8.654;2024-02-15T02:28:23;100848.56;;;17.28;61.88
76378;BME280;65200;49.500;8.654;2024-02-15T02:30:51;100850.19;;;17.96;59.03
76378;BME280;65200;49.500;8.654;2024-02-15T02:33:20;100850.44;;;17.27;62.66
76378;BME280;65200;49.500;8.654;2024-02-15T02:35:49;100848.47;;;17.65;60.39
76378;BME280;65200;49.500;8.654;2024-02-15T02:38:17;100850.50;;;17.70;60.75
76378;BME280;65200;49.500;8.654;2024-02-15T02:40:45;100853.53;;;17.98;60.08
76378;BME280;65200;49.500;8.654;2024-02-15T02:43:14;100856.75;;;18.72;57.81
76378;BME280;65200;49.500;8.654;2024-02-15T02:45:41;100857.34;;;18.45;58.38
76378;BME280;65200;49.500;8.654;2024-02-15T02:48:09;100857.94;;;18.47;58.65
76378;BME280;65200;49.500;8.654;2024-02-15T02:50:38;100844.53;;;18.16;59.54
76378;BME280;65200;49.500;8.654;2024-02-15T02:53:06;100838.25;;;17.86;60.34
76378;BME280;65200;49.500;8.654;2024-02-15T02:55:37;100840.97;;;18.33;58.71
76378;BME280;65200;49.500;8.654;2024-02-15T02:58:05;100838.09;;;17.99;58.98
76378;BME280;65200;49.500;8.654;2024-02-15T03:00:35;100836.78;;;17.65;60.15
76378;BME280;65200;49.500;8.654;2024-02-15T03:03:04;100840.28;;;17.90;60.53
76378;BME280;65200;49.500;8.654;2024-02-15T03:05:31;100840.41;;;17.77;60.17
76378;BME280;65200;49.500;8.654;2024-02-15T03:07:59;100832.44;;;17.82;60.41
76378;BME280;65200;49.500;8.654;2024-02-15T03:10:27;100835.72;;;17.84;60.34
76378;BME280;65200;49.500;8.654;2024-02-15T03:12:54;100830.91;;;18.04;58.81
76378;BME280;65200;49.500;8.654;2024-02-15T03:15:22;100843.38;;;18.23;58.85
76378;BME280;65200;49.500;8.654;2024-02-15T03:17:51;100838.09;;;17.81;58.08
76378;BME280;65200;49.500;8.654;2024-02-15T03:20:19;100844.31;;;17.99;58.29
76378;BME280;65200;49.500;8.654;2024-02-15T03:22:52;100851.41;;;18.00;58.58
76378;BME280;65200;49.500;8.654;2024-02-15T03:25:20;100845.69;;;17.23;60.61
76378;BME280;65200;49.500;8.654;2024-02-15T03:27:50;100841.81;;;17.37;60.59
76378;BME280;65200;49.500;8.654;2024-02-15T03:30:19;100841.53;;;17.51;60.44
76378;BME280;65200;49.500;8.654;2024-02-15T03:32:47;100846.94;;;17.88;59.23
76378;BME280;65200;49.500;8.654;2024-02-15T03:35:20;100843.94;;;17.96;58.65
76378;BME280;65200;49.500;8.654;2024-02-15T03:37:50;100837.78;;;17.89;58.62
76378;BME280;65200;49.500;8.654;2024-02-15T03:40:18;100843.91;;;18.32;58.53
76378;BME280;65200;49.500;8.654;2024-02-15T03:42:46;100842.91;;;17.97;57.79
76378;BME280;65200;49.500;8.654;2024-02-15T03:45:14;100845.53;;;18.03;58.32
76378;BME280;65200;49.500;8.654;2024-02-15T03:47:42;100839.94;;;18.16;57.43
76378;BME280;65200;49.500;8.654;2024-02-15T03:50:10;100837.84;;;18.00;59.00
76378;BME280;65200;49.500;8.654;2024-02-15T03:52:43;100850.19;;;18.32;57.38
76378;BME280;65200;49.500;8.654;2024-02-15T03:55:11;100844.78;;;17.96;58.63
76378;BME280;65200;49.500;8.654;2024-02-15T03:57:39;100847.09;;;18.29;57.91
76378;BME280;65200;49.500;8.654;2024-02-15T04:00:08;100849.19;;;18.27;58.40
76378;BME280;65200;49.500;8.654;2024-02-15T04:02:38;100857.94;;;18.76;56.66
76378;BME280;65200;49.500;8.654;2024-02-15T04:05:09;100858.72;;;18.00;58.10
76378;BME280;65200;49.500;8.654;2024-02-15T04:07:39;100852.28;;;17.58;58.81
76378;BME280;65200;49.500;8.654;2024-02-15T04:10:09;100849.91;;;18.04;58.58
76378;BME280;65200;49.500;8.654;2024-02-15T04:12:36;100848.34;;;18.74;56.80
76378;BME280;65200;49.500;8.654;2024-02-15T04:15:06;100844.78;;;18.14;58.75
76378;BME280;65200;49.500;8.654;2024-02-15T04:17:39;100847.63;;;18.19;58.49
76378;BME280;65200;49.500;8.654;2024-02-15T04:20:09;100845.69;;;17.72;59.56
76378;BME280;65200;49.500;8.654;2024-02-15T04:22:39;100838.75;;;17.76;58.60
76378;BME280;65200;49.500;8.654;2024-02-15T04:25:10;100841.81;;;17.61;59.28
76378;BME280;65200;49.500;8.654;2024-02-15T04:27:44;100830.00;;;17.56;59.61
76378;BME280;65200;49.500;8.654;2024-02-15T04:30:12;100832.66;;;17.99;59.02
76378;BME280;65200;49.500;8.654;2024-02-15T04:32:42;100833.31;;;17.33;60.18
76378;BME280;65200;49.500;8.654;2024-02-15T04:35:10;100822.47;;;18.12;58.37
76378;BME280;65200;49.500;8.654;2024-02-15T04:37:40;100833.03;;;17.66;60.34
76378;BME280;65200;49.500;8.654;2024-02-15T04:40:08;100830.31;;;17.48;60.38
76378;BME280;65200;49.500;8.654;2024-02-15T04:42:39;100828.34;;;18.09;58.40
76378;BME280;65200;49.500;8.654;2024-02-15T04:45:08;100824.00;;;17.90;58.75
76378;BME280;65200;49.500;8.654;2024-02-15T04:47:39;100826.22;;;17.32;60.05
76378;BME280;65200;49.500;8.654;2024-02-15T04:50:08;100820.50;;;17.65;59.20
76378;BME280;65200;49.500;8.654;2024-02-15T04:52:36;100818.78;;;17.28;59.97
76378;BME280;65200;49.500;8.654;2024-02-15T04:55:04;100822.94;;;17.73;59.41
76378;BME280;65200;49.500;8.654;2024-02-15T04:57:32;100820.81;;;17.75;58.70
76378;BME280;65200;49.500;8.654;2024-02-15T05:00:06;100817.72;;;17.53;58.42
76378;BME280;65200;49.500;8.654;2024-02-15T05:02:38;100814.91;;;17.17;58.75
76378;BME280;65200;49.500;8.654;2024-02-15T05:05:08;100809.97;;;17.57;58.25
76378;BME280;65200;49.500;8.654;2024-02-15T05:07:36;100813.94;;;17.12;60.50
76378;BME280;65200;49.500;8.654;2024-02-15T05:10:06;100815.94;;;17.65;59.01
76378;BME280;65200;49.500;8.654;2024-02-15T05:12:37;100810.38;;;17.78;58.62
76378;BME280;65200;49.500;8.654;2024-02-15T05:15:06;100815.94;;;17.65;57.50
76378;BME280;65200;49.500;8.654;2024-02-15T05:17:39;100811.03;;;17.92;57.39
76378;BME280;65200;49.500;8.654;2024-02-15T05:20:09;100812.91;;;18.10;57.51
76378;BME280;65200;49.500;8.654;2024-02-15T05:22:40;100814.19;;;17.53;57.59
76378;BME280;65200;49.500;8.654;2024-02-15T05:25:14;100813.78;;;18.22;57.94
76378;BME280;65200;49.500;8.654;2024-02-15T05:27:42;100805.97;;;17.96;57.08
76378;BME280;65200;49.500;8.654;2024-02-15T05:30:13;100809.44;;;17.66;58.31
76378;BME280;65200;49.500;8.654;2024-02-15T05:32:41;100802.00;;;17.37;58.67
76378;BME280;65200;49.500;8.654;2024-02-15T05:35:10;100808.19;;;17.44;58.11
76378;BME280;65200;49.500;8.654;2024-02-15T05:37:38;100813.22;;;17.41;58.87
76378;BME280;65200;49.500;8.654;2024-02-15T05:40:06;100804.09;;;17.78;57.33
76378;BME280;65200;49.500;8.654;2024-02-15T05:42:41;100815.38;;;18.11;57.91
76378;BME280;65200;49.500;8.654;2024-02-15T05:45:30;100810.88;;;17.51;59.06
76378;BME280;65200;49.500;8.654;2024-02-15T05:48:04;100807.28;;;17.08;60.14
76378;BME280;65200;49.500;8.654;2024-02-15T05:50:34;100809.00;;;17.88;58.26
76378;BME280;65200;49.500;8.654;2024-02-15T05:53:02;100811.50;;;17.53;58.31
76378;BME280;65200;49.500;8.654;2024-02-15T05:55:30;100812.22;;;17.96;57.47
76378;BME280;65200;49.500;8.654;2024-02-15T05:58:02;100810.25;;;17.49;59.58
76378;BME280;65200;49.500;8.654;2024-02-15T06:00:31;100813.75;;;17.92;56.79
76378;BME280;65200;49.500;8.654;2024-02-15T06:03:00;100810.03;;;17.26;59.32
76378;BME280;65200;49.500;8.654;2024-02-15T06:05:29;100812.34;;;17.22;60.42
76378;BME280;65200;49.500;8.654;2024-02-15T06:07:57;100814.94;;;17.35;58.90
76378;BME280;65200;49.500;8.654;2024-02-15T06:10:25;100810.06;;;17.87;58.56
76378;BME280;65200;49.500;8.654;2024-02-15T06:12:52;100820.66;;;18.06;57.57
76378;BME280;65200;49.500;8.654;2024-02-15T06:15:21;100808.19;;;17.87;57.79
76378;BME280;65200;49.500;8.654;2024-02-15T06:17:52;100808.41;;;18.33;56.08
76378;BME280;65200;49.500;8.654;2024-02-15T06:20:20;100798.00;;;17.64;58.19
76378;BME280;65200;49.500;8.654;2024-02-15T06:22:50;100798.63;;;17.42;58.34
76378;BME280;65200;49.500;8.654;2024-02-15T06:25:19;100786.50;;;17.69;57.28
76378;BME280;65200;49.500;8.654;2024-02-15T06:27:48;100793.47;;;17.58;58.42
76378;BME280;65200;49.500;8.654;2024-02-15T06:30:20;100794.00;;;17.67;58.26
76378;BME280;65200;49.500;8.654;2024-02-15T06:33:06;100786.25;;;17.52;57.86
76378;BME280;65200;49.500;8.654;2024-02-15T06:35:51;100794.16;;;17.72;58.09
76378;BME280;65200;49.500;8.654;2024-02-15T06:38:36;100792.06;;;17.56;57.70
76378;BME280;65200;49.500;8.654;2024-02-15T06:41:22;100794.56;;;17.33;58.83
76378;BME280;65200;49.500;8.654;2024-02-15T06:43:52;100789.81;;;17.53;57.86
76378;BME280;65200;49.500;8.654;2024-02-15T06:46:20;100793.69;;;17.14;59.53
76378;BME280;65200;49.500;8.654;2024-02-15T06:48:49;100790.41;;;17.30;58.84
76378;BME280;65200;49.500;8.654;2024-02-15T06:51:16;100795.31;;;18.12;56.68
76378;BME280;65200;49.500;8.654;2024-02-15T06:53:45;100784.91;;;17.19;59.46
76378;BME280;65200;49.500;8.654;2024-02-15T06:56:14;100787.81;;;17.96;56.92
76378;BME280;65200;49.500;8.654;2024-02-15T06:58:41;100787.44;;;17.38;58.14
76378;BME280;65200;49.500;8.654;2024-02-15T07:01:09;100790.22;;;17.50;58.71
76378;BME280;65200;49.500;8.654;2024-02-15T07:03:41;100782.03;;;17.56;58.98
76378;BME280;65200;49.500;8.654;2024-02-15T07:06:12;100788.06;;;17.76;57.27
76378;BME280;65200;49.500;8.654;2024-02-15T07:08:41;100781.63;;;17.35;59.50
76378;BME280;65200;49.500;8.654;2024-02-15T07:11:08;100787.50;;;17.32;58.60
76378;BME280;65200;49.500;8.654;2024-02-15T07:13:36;100782.72;;;17.88;56.72
76378;BME280;65200;49.500;8.654;2024-02-15T07:16:07;100787.19;;;17.40;58.86
76378;BME280;65200;49.500;8.654;2024-02-15T07:18:35;100789.94;;;17.76;58.47
76378;BME280;65200;49.500;8.654;2024-02-15T07:21:03;100787.91;;;17.53;56.66
76378;BME280;65200;49.500;8.654;2024-02-15T07:23:38;100793.63;;;17.63;57.20
76378;BME280;65200;49.500;8.654;2024-02-15T07:26:07;100791.06;;;17.50;57.05
76378;BME280;65200;49.500;8.654;2024-02-15T07:28:39;100793.41;;;17.65;57.56
76378;BME280;65200;49.500;8.654;2024-02-15T07:31:07;100789.84;;;17.04;58.40
76378;BME280;65200;49.500;8.654;2024-02-15T07:33:34;100790.84;;;17.70;57.89
76378;BME280;65200;49.500;8.654;2024-02-15T07:36:03;100790.63;;;17.90;57.68
76378;BME280;65200;49.500;8.654;2024-02-15T07:38:31;100787.00;;;17.77;56.84
76378;BME280;65200;49.500;8.654;2024-02-15T07:41:02;100776.97;;;17.96;55.87
76378;BME280;65200;49.500;8.654;2024-02-15T07:43:30;100772.16;;;17.80;56.71
76378;BME280;65200;49.500;8.654;2024-02-15T07:45:57;100780.28;;;18.16;56.26
76378;BME280;65200;49.500;8.654;2024-02-15T07:48:25;100781.94;;;17.81;56.92
76378;BME280;65200;49.500;8.654;2024-02-15T07:50:53;100785.22;;;18.19;55.80
76378;BME280;65200;49.500;8.654;2024-02-15T07:53:21;100786.03;;;17.72;56.94
76378;BME280;65200;49.500;8.654;2024-02-15T07:55:49;100784.25;;;17.66;57.25
76378;BME280;65200;49.500;8.654;2024-02-15T07:58:18;100788.81;;;17.65;57.17
76378;BME280;65200;49.500;8.654;2024-02-15T08:00:45;100793.94;;;17.92;56.64
76378;BME280;65200;49.500;8.654;2024-02-15T08:03:13;100795.66;;;17.86;56.12
76378;BME280;65200;49.500;8.654;2024-02-15T08:05:42;100794.78;;;18.22;56.18
76378;BME280;65200;49.500;8.654;2024-02-15T08:08:10;100802.63;;;18.12;56.19
76378;BME280;65200;49.500;8.654;2024-02-15T08:10:37;100804.25;;;18.01;56.38
76378;BME280;65200;49.500;8.654;2024-02-15T08:13:05;100802.16;;;17.67;57.01
76378;BME280;65200;49.500;8.654;2024-02-15T08:15:36;100807.56;;;18.03;55.54
76378;BME280;65200;49.500;8.654;2024-02-15T08:18:04;100804.09;;;17.78;55.90
76378;BME280;65200;49.500;8.654;2024-02-15T08:20:35;100818.72;;;18.13;56.03
76378;BME280;65200;49.500;8.654;2024-02-15T08:23:03;100813.44;;;18.00;55.73
76378;BME280;65200;49.500;8.654;2024-02-15T08:25:30;100811.53;;;17.83;56.48
76378;BME280;65200;49.500;8.654;2024-02-15T08:27:58;100805.38;;;17.94;56.20
76378;BME280;65200;49.500;8.654;2024-02-15T08:30:31;100815.56;;;17.98;55.83
76378;BME280;65200;49.500;8.654;2024-02-15T08:33:00;100812.25;;;18.44;55.84
76378;BME280;65200;49.500;8.654;2024-02-15T08:35:28;100806.47;;;18.40;54.68
76378;BME280;65200;49.500;8.654;2024-02-15T08:37:56;100803.50;;;18.71;54.94
76378;BME280;65200;49.500;8.654;2024-02-15T08:40:23;100803.13;;;19.44;52.88
76378;BME280;65200;49.500;8.654;2024-02-15T08:42:52;100800.88;;;19.52;52.89
76378;BME280;65200;49.500;8.654;2024-02-15T08:45:20;100798.22;;;19.92;51.68
76378;BME280;65200;49.500;8.654;2024-02-15T08:47:49;100799.59;;;20.06;50.75
76378;BME280;65200;49.500;8.654;2024-02-15T08:50:20;100793.81;;;20.42;50.73
76378;BME280;65200;49.500;8.654;2024-02-15T08:52:50;100794.19;;;20.34;51.07
76378;BME280;65200;49.500;8.654;2024-02-15T08:55:17;100796.06;;;20.62;49.74
76378;BME280;65200;49.500;8.654;2024-02-15T08:57:50;100797.09;;;20.04;51.20
76378;BME280;65200;49.500;8.654;2024-02-15T09:00:17;100800.59;;;20.28;50.54
76378;BME280;65200;49.500;8.654;2024-02-15T09:02:46;100799.22;;;20.02;50.80
76378;BME280;65200;49.500;8.654;2024-02-15T09:05:15;100806.47;;;20.36;49.70
76378;BME280;65200;49.500;8.654;2024-02-15T09:07:48;100807.41;;;20.70;50.08
76378;BME280;65200;49.500;8.654;2024-02-15T09:10:17;100789.91;;;21.16;48.26
76378;BME280;65200;49.500;8.654;2024-02-15T09:12:46;100790.88;;;20.93;48.37
76378;BME280;65200;49.500;8.654;2024-02-15T09:15:15;100785.22;;;20.78;48.61
76378;BME280;65200;49.500;8.654;2024-02-15T09:17:44;100781.47;;;20.84;50.07
76378;BME280;65200;49.500;8.654;2024-02-15T09:20:14;100776.22;;;20.94;48.27
76378;BME280;65200;49.500;8.654;2024-02-15T09:22:42;100776.41;;;21.04;48.16
76378;BME280;65200;49.500;8.654;2024-02-15T09:25:14;100773.91;;;21.03;48.09
76378;BME280;65200;49.500;8.654;2024-02-15T09:27:42;100769.25;;;20.70;49.03
76378;BME280;65200;49.500;8.654;2024-02-15T09:30:11;100767.47;;;21.09;48.57
76378;BME280;65200;49.500;8.654;2024-02-15T09:32:39;100759.56;;;21.07;47.41
76378;BME280;65200;49.500;8.654;2024-02-15T09:35:08;100763.34;;;20.45;49.81
76378;BME280;65200;49.500;8.654;2024-02-15T09:37:42;100757.16;;;21.11;48.09
76378;BME280;65200;49.500;8.654;2024-02-15T09:40:11;100764.63;;;21.37;47.48
76378;BME280;65200;49.500;8.654;2024-02-15T09:42:43;100752.09;;;21.19;47.84
76378;BME280;65200;49.500;8.654;2024-02-15T09:45:12;100755.41;;;21.21;48.48
76378;BME280;65200;49.500;8.654;2024-02-15T09:47:41;100755.41;;;20.72;48.55
76378;BME280;65200;49.500;8.654;2024-02-15T09:50:10;100749.47;;;20.91;47.08
76378;BME280;65200;49.500;8.654;2024-02-15T09:52:43;100746.25;;;20.33;48.78
76378;BME280;65200;49.500;8.654;2024-02-15T09:55:12;100748.38;;;21.25;46.92
76378;BME280;65200;49.500;8.654;2024-02-15T09:57:43;100741.75;;;20.88;48.18
76378;BME280;65200;49.500;8.654;2024-02-15T10:00:12;100742.50;;;20.67;47.87
76378;BME280;65200;49.500;8.654;2024-02-15T10:02:41;100739.00;;;20.38;47.71
76378;BME280;65200;49.500;8.654;2024-02-15T10:05:11;100731.03;;;20.20;47.92
76378;BME280;65200;49.500;8.654;2024-02-15T10:07:39;100737.22;;;20.44;47.78
76378;BME280;65200;49.500;8.654;2024-02-15T10:10:18;100729.03;;;21.27;47.06
76378;BME280;65200;49.500;8.654;2024-02-15T10:12:49;100722.94;;;21.20;46.50
76378;BME280;65200;49.500;8.654;2024-02-15T10:15:28;100728.13;;;20.88;47.07
76378;BME280;65200;49.500;8.654;2024-02-15T10:18:00;100719.34;;;20.98;46.93
76378;BME280;65200;49.500;8.654;2024-02-15T10:20:28;100718.47;;;20.64;47.10
76378;BME280;65200;49.500;8.654;2024-02-15T10:23:09;100716.41;;;21.21;46.16
76378;BME280;65200;49.500;8.654;2024-02-15T10:25:38;100710.72;;;21.44;46.13
76378;BME280;65200;49.500;8.654;2024-02-15T10:28:08;100705.31;;;21.27;45.81
76378;BME280;65200;49.500;8.654;2024-02-15T10:30:37;100710.38;;;22.00;44.41
76378;BME280;65200;49.500;8.654;2024-02-15T10:33:05;100707.69;;;21.02;45.71
76378;BME280;65200;49.500;8.654;2024-02-15T10:35:34;100707.47;;;21.85;45.41
76378;BME280;65200;49.500;8.654;2024-02-15T10:38:07;100713.34;;;22.52;44.58
76378;BME280;65200;49.500;8.654;2024-02-15T10:40:36;100703.84;;;21.58;46.33
76378;BME280;65200;49.500;8.654;2024-02-15T10:43:05;100699.81;;;21.44;44.65
76378;BME280;65200;49.500;8.654;2024-02-15T10:45:35;100698.91;;;21.17;44.93
76378;BME280;65200;49.500;8.654;2024-02-15T10:48:06;100699.81;;;21.44;45.37
76378;BME280;65200;49.500;8.654;2024-02-15T10:50:33;100704.72;;;22.07;45.18
76378;BME280;65200;49.500;8.654;2024-02-15T10:53:07;100695.69;;;21.63;45.65
76378;BME280;65200;49.500;8.654;2024-02-15T10:55:43;100697.59;;;22.59;44.13
76378;BME280;65200;49.500;8.654;2024-02-15T10:58:16;100696.84;;;20.74;46.35
76378;BME280;65200;49.500;8.654;2024-02-15T11:00:49;100692.84;;;21.53;45.55
76378;BME280;65200;49.500;8.654;2024-02-15T11:03:22;100690.47;;;21.61;45.66
76378;BME280;65200;49.500;8.654;2024-02-15T11:05:53;100689.50;;;21.67;44.58
76378;BME280;65200;49.500;8.654;2024-02-15T11:08:23;100686.88;;;21.34;45.23
76378;BME280;65200;49.500;8.654;2024-02-15T11:10:50;100677.47;;;21.04;45.72
76378;BME280;65200;49.500;8.654;2024-02-15T11:13:20;100675.00;;;21.45;45.46
76378;BME280;65200;49.500;8.654;2024-02-15T11:15:48;100673.28;;;22.31;44.44
76378;BME280;65200;49.500;8.654;2024-02-15T11:18:43;100671.34;;;21.78;44.11
76378;BME280;65200;49.500;8.654;2024-02-15T11:21:12;100664.66;;;21.91;45.05
76378;BME280;65200;49.500;8.654;2024-02-15T11:23:39;100662.28;;;21.72;45.44
76378;BME280;65200;49.500;8.654;2024-02-15T11:26:10;100655.84;;;21.40;45.53
76378;BME280;65200;49.500;8.654;2024-02-15T11:28:39;100650.69;;;22.14;45.94
76378;BME280;65200;49.500;8.654;2024-02-15T11:34:44;100660.97;;;22.60;46.08
76378;BME280;65200;49.500;8.654;2024-02-15T11:37:49;100653.09;;;21.79;46.30
76378;BME280;65200;49.500;8.654;2024-02-15T11:40:20;100652.06;;;22.11;45.30
76378;BME280;65200;49.500;8.654;2024-02-15T11:42:50;100638.25;;;22.23;45.36
76378;BME280;65200;49.500;8.654;2024-02-15T11:45:20;100637.13;;;22.87;44.46
76378;BME280;65200;49.500;8.654;2024-02-15T11:47:49;100630.25;;;22.16;44.79
76378;BME280;65200;49.500;8.654;2024-02-15T11:50:20;100627.44;;;22.69;44.35
76378;BME280;65200;49.500;8.654;2024-02-15T11:52:49;100630.28;;;21.90;45.49
76378;BME280;65200;49.500;8.654;2024-02-15T11:55:18;100620.59;;;22.72;43.95
76378;BME280;65200;49.500;8.654;2024-02-15T11:57:56;100612.97;;;22.06;44.43
76378;BME280;65200;49.500;8.654;2024-02-15T12:00:29;100609.78;;;22.19;44.28
76378;BME280;65200;49.500;8.654;2024-02-15T12:03:15;100611.03;;;22.33;43.39
76378;BME280;65200;49.500;8.654;2024-02-15T12:06:02;100606.50;;;22.17;44.01
76378;BME280;65200;49.500;8.654;2024-02-15T12:08:49;100603.03;;;22.58;42.03
76378;BME280;65200;49.500;8.654;2024-02-15T12:11:34;100591.63;;;21.49;42.83
76378;BME280;65200;49.500;8.654;2024-02-15T12:14:20;100595.22;;;21.77;42.78
76378;BME280;65200;49.500;8.654;2024-02-15T12:17:13;100588.59;;;22.62;40.89
76378;BME280;65200;49.500;8.654;2024-02-15T12:20:01;100581.97;;;22.22;39.25
76378;BME280;65200;49.500;8.654;2024-02-15T12:22:38;100571.00;;;22.95;40.39
76378;BME280;65200;49.500;8.654;2024-02-15T12:25:07;100565.47;;;22.07;40.28
76378;BME280;65200;49.500;8.654;2024-02-15T12:27:39;100568.28;;;22.17;39.83
76378;BME280;65200;49.500;8.654;2024-02-15T12:30:13;100555.59;;;22.74;40.75
76378;BME280;65200;49.500;8.654;2024-02-15T12:32:41;100545.94;;;22.20;40.39
76378;BME280;65200;49.500;8.654;2024-02-15T12:35:09;100545.28;;;22.49;39.62
76378;BME280;65200;49.500;8.654;2024-02-15T12:37:38;100542.16;;;22.26;39.81
76378;BME280;65200;49.500;8.654;2024-02-15T12:40:10;100546.06;;;22.40;39.31
76378;BME280;65200;49.500;8.654;2024-02-15T12:42:42;100539.13;;;22.64;39.14
76378;BME280;65200;49.500;8.654;2024-02-15T12:45:17;100538.97;;;22.39;39.47
76378;BME280;65200;49.500;8.654;2024-02-15T12:47:48;100538.06;;;22.65;40.27
76378;BME280;65200;49.500;8.654;2024-02-15T12:50:17;100543.94;;;22.93;38.85
76378;BME280;65200;49.500;8.654;2024-02-15T12:52:48;100541.97;;;22.84;40.14
76378;BME280;65200;49.500;8.654;2024-02-15T12:55:17;100542.41;;;22.61;40.15
76378;BME280;65200;49.500;8.654;2024-02-15T12:57:47;100537.56;;;22.00;41.16
76378;BME280;65200;49.500;8.654;2024-02-15T13:00:18;100536.34;;;22.17;40.83
76378;BME280;65200;49.500;8.654;2024-02-15T13:02:48;100539.38;;;22.52;41.22
76378;BME280;65200;49.500;8.654;2024-02-15T13:05:17;100533.56;;;22.12;41.58
76378;BME280;65200;49.500;8.654;2024-02-15T13:07:48;100523.38;;;22.81;41.47